TimeCDT,TemperatureF,Dew PointF,Humidity,Sea Level PressureIn,VisibilityMPH,Wind Direction,Wind SpeedMPH,Gust SpeedMPH,PrecipitationIn,Events,Conditions,WindDirDegrees,DateUTC
12:15 AM,40.6,36.5,85,29.76,10.0,NW,9.2,-,N/A,,Overcast,320,2012-10-15 05:15:00
12:35 AM,41.0,36.5,84,29.76,10.0,NW,6.9,-,N/A,,Overcast,320,2012-10-15 05:35:00
12:55 AM,41.0,36.5,84,29.77,10.0,NW,5.8,-,N/A,,Overcast,320,2012-10-15 05:55:00
1:15 AM,41.0,36.5,84,29.78,10.0,NW,6.9,-,N/A,,Overcast,310,2012-10-15 06:15:00
1:35 AM,41.0,36.1,83,29.78,10.0,NW,5.8,-,N/A,,Overcast,310,2012-10-15 06:35:00
1:55 AM,41.0,36.0,82,29.79,10.0,NW,9.2,-,N/A,,Overcast,310,2012-10-15 06:55:00
2:15 AM,41.0,35.8,82,29.79,10.0,WNW,5.8,-,N/A,,Overcast,300,2012-10-15 07:15:00
2:35 AM,40.6,35.6,82,29.80,10.0,WNW,5.8,-,N/A,,Overcast,300,2012-10-15 07:35:00
2:55 AM,40.1,36.0,85,29.80,10.0,West,4.6,-,N/A,,Overcast,270,2012-10-15 07:55:00
3:15 AM,39.4,35.6,86,29.80,10.0,West,5.8,-,N/A,,Overcast,280,2012-10-15 08:15:00
3:35 AM,38.7,35.6,89,29.80,10.0,WNW,4.6,-,N/A,,Overcast,290,2012-10-15 08:35:00
3:55 AM,37.9,35.1,89,29.80,10.0,WNW,6.9,-,N/A,,Scattered Clouds,290,2012-10-15 08:55:00
4:15 AM,37.4,34.9,91,29.81,10.0,WNW,5.8,-,N/A,,Clear,290,2012-10-15 09:15:00
4:55 AM,36.5,34.2,91,29.82,10.0,WNW,4.6,-,N/A,,Clear,300,2012-10-15 09:55:00
5:15 AM,36.1,34.0,92,29.83,10.0,WNW,4.6,-,N/A,,Clear,290,2012-10-15 10:15:00
5:35 AM,35.8,33.8,92,29.84,10.0,Calm,Calm,-,N/A,,Clear,0,2012-10-15 10:35:00
5:55 AM,35.6,33.8,93,29.84,10.0,WNW,3.5,-,N/A,,Clear,290,2012-10-15 10:55:00
6:15 AM,35.1,33.4,94,29.85,10.0,WNW,3.5,-,N/A,,Clear,290,2012-10-15 11:15:00
6:35 AM,34.7,33.3,94,29.86,10.0,WNW,3.5,-,N/A,,Scattered Clouds,300,2012-10-15 11:35:00
7:15 AM,34.0,32.5,94,29.87,10.0,WNW,3.5,-,N/A,,Scattered Clouds,290,2012-10-15 12:15:00
7:35 AM,34.2,32.9,95,29.87,10.0,West,4.6,-,N/A,,Scattered Clouds,280,2012-10-15 12:35:00
7:55 AM,34.2,32.7,94,29.89,10.0,West,4.6,-,N/A,,Scattered Clouds,270,2012-10-15 12:55:00
8:55 AM,36.9,33.1,86,29.90,10.0,NW,6.9,-,N/A,,Mostly Cloudy,310,2012-10-15 13:55:00
9:15 AM,38.5,33.8,83,29.90,10.0,NW,4.6,-,N/A,,Mostly Cloudy,320,2012-10-15 14:15:00
9:35 AM,39.2,33.6,80,29.91,10.0,WNW,6.9,-,N/A,,Mostly Cloudy,290,2012-10-15 14:35:00
9:55 AM,40.6,33.8,77,29.91,10.0,NNW,8.1,-,N/A,,Scattered Clouds,330,2012-10-15 14:55:00
10:15 AM,41.5,33.4,73,29.93,10.0,WNW,3.5,-,N/A,,Clear,300,2012-10-15 15:15:00
10:35 AM,42.8,33.1,69,29.93,10.0,WNW,4.6,-,N/A,,Clear,300,2012-10-15 15:35:00
10:55 AM,43.9,33.4,67,29.93,10.0,WNW,6.9,-,N/A,,Clear,300,2012-10-15 15:55:00
11:35 AM,45.7,32.4,60,29.93,10.0,NNW,5.8,-,N/A,,Clear,340,2012-10-15 16:35:00
11:55 AM,46.8,32.4,57,29.92,10.0,WNW,5.8,-,N/A,,Clear,300,2012-10-15 16:55:00
12:15 PM,48.4,32.9,55,29.93,10.0,West,6.9,-,N/A,,Clear,280,2012-10-15 17:15:00
12:35 PM,48.7,32.0,52,29.93,10.0,NW,6.9,-,N/A,,Clear,310,2012-10-15 17:35:00
1:15 PM,50.2,32.0,50,29.91,10.0,NNW,6.9,-,N/A,,Clear,340,2012-10-15 18:15:00
1:35 PM,50.9,32.2,49,29.91,10.0,WNW,8.1,-,N/A,,Clear,300,2012-10-15 18:35:00
1:55 PM,52.0,32.7,48,29.91,10.0,WNW,5.8,-,N/A,,Clear,290,2012-10-15 18:55:00
2:15 PM,51.4,32.4,48,29.90,10.0,West,8.1,-,N/A,,Clear,260,2012-10-15 19:15:00
2:35 PM,52.9,32.7,46,29.90,10.0,WNW,4.6,-,N/A,,Clear,300,2012-10-15 19:35:00
3:15 PM,53.8,34.3,48,29.90,10.0,WSW,6.9,-,N/A,,Clear,250,2012-10-15 20:15:00
3:35 PM,53.8,33.8,47,29.90,10.0,West,8.1,-,N/A,,Clear,270,2012-10-15 20:35:00
3:55 PM,53.6,33.1,46,29.90,10.0,WNW,5.8,-,N/A,,Clear,290,2012-10-15 20:55:00
4:15 PM,53.8,34.3,48,29.90,10.0,West,6.9,-,N/A,,Clear,270,2012-10-15 21:15:00
4:35 PM,52.7,34.9,51,29.90,10.0,West,6.9,-,N/A,,Clear,270,2012-10-15 21:35:00
4:55 PM,52.7,34.9,51,29.90,10.0,West,4.6,-,N/A,,Clear,260,2012-10-15 21:55:00
5:15 PM,52.9,34.9,50,29.90,10.0,West,4.6,-,N/A,,Clear,260,2012-10-15 22:15:00
5:35 PM,52.7,34.7,50,29.90,10.0,WSW,4.6,-,N/A,,Clear,250,2012-10-15 22:35:00
6:15 PM,50.0,35.1,57,29.89,10.0,Calm,Calm,-,N/A,,Clear,0,2012-10-15 23:15:00
6:35 PM,45.7,35.8,68,29.89,10.0,Calm,Calm,-,N/A,,Clear,0,2012-10-15 23:35:00
6:55 PM,44.1,36.5,75,29.90,10.0,Calm,Calm,-,N/A,,Clear,0,2012-10-15 23:55:00
7:15 PM,43.0,36.3,77,29.90,10.0,Calm,Calm,-,N/A,,Clear,0,2012-10-16 00:15:00
7:35 PM,41.7,36.7,82,29.90,10.0,Calm,Calm,-,N/A,,Clear,0,2012-10-16 00:35:00
7:55 PM,39.2,35.6,87,29.90,10.0,Calm,Calm,-,N/A,,Clear,0,2012-10-16 00:55:00
8:15 PM,38.7,35.6,89,29.89,10.0,Calm,Calm,-,N/A,,Clear,0,2012-10-16 01:15:00
8:35 PM,38.1,34.9,88,29.90,10.0,Calm,Calm,-,N/A,,Clear,0,2012-10-16 01:35:00
8:55 PM,36.0,34.7,95,29.91,10.0,Calm,Calm,-,N/A,,Clear,0,2012-10-16 01:55:00
9:15 PM,35.2,33.1,92,29.91,10.0,Calm,Calm,-,N/A,,Clear,0,2012-10-16 02:15:00
9:35 PM,35.6,33.8,93,29.91,10.0,Calm,Calm,-,N/A,,Clear,0,2012-10-16 02:35:00
9:55 PM,34.3,33.3,96,29.90,10.0,Calm,Calm,-,N/A,,Clear,0,2012-10-16 02:55:00
10:15 PM,34.3,33.3,96,29.89,10.0,Calm,Calm,-,N/A,,Clear,0,2012-10-16 03:15:00
10:35 PM,36.0,34.0,93,29.89,10.0,Calm,Calm,-,N/A,,Scattered Clouds,0,2012-10-16 03:35:00
10:55 PM,36.0,34.0,93,29.89,10.0,Calm,Calm,-,N/A,,Clear,0,2012-10-16 03:55:00
11:15 PM,35.4,33.3,92,29.88,10.0,Calm,Calm,-,N/A,,Clear,0,2012-10-16 04:15:00
11:35 PM,36.1,34.2,93,29.88,10.0,Calm,Calm,-,N/A,,Scattered Clouds,0,2012-10-16 04:35:00
11:55 PM,36.9,34.7,92,29.88,10.0,Calm,Calm,-,N/A,,Clear,0,2012-10-16 04:55:00